createdAt,value
2018-07-26T00:00:33.207Z,52.94
2018-07-26T00:03:57.880Z,52.71
2018-07-26T00:07:22.543Z,53.76
2018-07-26T00:10:47.273Z,53.49
2018-07-26T00:14:11.978Z,53.79
2018-07-26T00:17:36.786Z,52.90
2018-07-26T00:21:01.485Z,53.79
2018-07-26T00:24:26.127Z,53.26
2018-07-26T00:27:50.789Z,53.93
2018-07-26T00:31:15.491Z,53.02
2018-07-26T00:34:40.160Z,53.08
2018-07-26T00:38:04.963Z,53.14
2018-07-26T00:41:29.624Z,54.31
2018-07-26T00:44:54.253Z,55.61
2018-07-26T00:48:18.942Z,54.59
2018-07-26T00:51:43.665Z,54.69
2018-07-26T00:55:08.397Z,54.99
2018-07-26T00:58:33.065Z,56.38
2018-07-26T01:01:57.843Z,55.04
2018-07-26T01:05:22.483Z,55.31
2018-07-26T01:08:47.133Z,54.33
2018-07-26T01:12:11.833Z,55.05
2018-07-26T01:15:36.524Z,54.79
2018-07-26T01:19:01.300Z,56.17
2018-07-26T01:22:25.982Z,55.00
2018-07-26T01:25:50.644Z,55.71
2018-07-26T01:29:15.392Z,55.75
2018-07-26T01:32:40.031Z,56.20
2018-07-26T01:36:04.742Z,57.04
2018-07-26T01:39:29.387Z,55.88
2018-07-26T01:44:10.747Z,56.05
2018-07-26T01:47:35.418Z,57.50
2018-07-26T01:51:00.062Z,56.23
2018-07-26T01:54:24.700Z,56.47
2018-07-26T01:57:49.333Z,53.93
2018-07-26T02:01:14.283Z,55.63
2018-07-26T02:04:39.047Z,56.23
2018-07-26T02:08:03.755Z,57.17
2018-07-26T02:11:28.147Z,56.94
2018-07-26T02:14:52.769Z,54.89
2018-07-26T02:18:17.465Z,56.88
2018-07-26T02:21:42.133Z,57.42
2018-07-26T02:25:06.834Z,57.24
2018-07-26T02:28:31.489Z,57.80
2018-07-26T02:31:56.189Z,57.88
2018-07-26T02:35:20.887Z,57.66
2018-07-26T02:38:45.625Z,56.78
2018-07-26T02:42:10.771Z,59.99
2018-07-26T02:45:35.107Z,59.31
2018-07-26T02:48:59.784Z,58.21
2018-07-26T02:52:24.436Z,57.78
2018-07-26T02:55:49.163Z,60.20
2018-07-26T02:59:13.852Z,59.31
2018-07-26T03:02:38.785Z,58.71
2018-07-26T03:06:03.447Z,58.19
2018-07-26T03:09:28.169Z,58.57
2018-07-26T03:12:52.855Z,59.74
2018-07-26T03:16:17.580Z,60.02
2018-07-26T03:19:42.975Z,60.81
2018-07-26T03:23:07.717Z,60.19
2018-07-26T03:26:32.364Z,60.05
2018-07-26T03:29:57.060Z,58.35
2018-07-26T03:33:21.808Z,58.86
2018-07-26T03:36:46.164Z,59.89
2018-07-26T03:40:10.833Z,59.14
2018-07-26T03:43:35.538Z,61.16
2018-07-26T03:47:00.362Z,60.28
2018-07-26T03:50:25.083Z,60.58
2018-07-26T03:53:49.739Z,61.68
2018-07-26T03:57:14.400Z,60.27
2018-07-26T04:00:39.065Z,59.43
2018-07-26T04:04:03.799Z,62.22
2018-07-26T04:07:28.452Z,62.04
2018-07-26T04:10:53.255Z,62.51
2018-07-26T04:14:18.100Z,60.89
2018-07-26T04:17:42.866Z,62.64
2018-07-26T04:21:07.544Z,62.29
2018-07-26T04:24:32.224Z,63.74
2018-07-26T04:27:57.063Z,63.44
2018-07-26T04:31:21.813Z,64.56
2018-07-26T04:34:46.593Z,64.86
2018-07-26T04:38:11.313Z,64.42
2018-07-26T04:41:36.133Z,62.34
2018-07-26T04:45:00.831Z,62.08
2018-07-26T04:48:25.489Z,62.71
2018-07-26T04:51:50.241Z,62.42
2018-07-26T04:55:14.941Z,63.30
2018-07-26T04:58:39.673Z,63.59
2018-07-26T05:02:04.495Z,64.00
2018-07-26T05:05:29.281Z,61.99
2018-07-26T05:08:53.988Z,62.15
2018-07-26T05:12:18.324Z,62.93
2018-07-26T05:15:43.025Z,62.82
2018-07-26T05:19:07.748Z,62.03
2018-07-26T05:22:32.063Z,63.06
2018-07-26T05:25:56.781Z,62.60
2018-07-26T05:29:21.475Z,62.02
2018-07-26T05:32:46.255Z,61.99
2018-07-26T05:36:11.013Z,61.00
2018-07-26T05:39:35.727Z,61.55
2018-07-26T05:43:00.527Z,61.44
2018-07-26T05:46:25.265Z,60.49
2018-07-26T05:49:49.997Z,60.07
2018-07-26T05:53:14.733Z,59.69
2018-07-26T05:56:39.427Z,59.22
2018-07-26T06:00:05.571Z,58.67
2018-07-26T06:03:30.374Z,58.66
2018-07-26T06:06:55.152Z,59.03
2018-07-26T06:10:19.824Z,59.25
2018-07-26T06:13:44.541Z,59.30
2018-07-26T06:17:09.400Z,57.96
2018-07-26T06:20:34.284Z,57.42
2018-07-26T06:23:58.639Z,58.21
2018-07-26T06:27:23.512Z,58.11
2018-07-26T06:30:48.233Z,57.05
2018-07-26T06:34:13.100Z,56.61
2018-07-26T06:37:37.923Z,56.53
2018-07-26T06:41:02.658Z,54.89
2018-07-26T06:44:27.163Z,55.92
2018-07-26T06:47:51.909Z,56.22
2018-07-26T06:51:16.775Z,56.51
2018-07-26T06:54:41.505Z,53.92
2018-07-26T06:58:06.271Z,53.42
2018-07-26T07:01:30.989Z,53.17
2018-07-26T07:04:55.696Z,53.66
2018-07-26T07:08:20.664Z,53.30
2018-07-26T07:11:45.549Z,52.58
2018-07-26T07:15:10.529Z,53.15
2018-07-26T07:18:35.464Z,52.70
2018-07-26T07:22:00.379Z,52.22
2018-07-26T07:25:25.178Z,51.99
2018-07-26T07:28:50.175Z,52.03
2018-07-26T07:32:14.870Z,51.08
2018-07-26T07:35:39.720Z,50.84
2018-07-26T07:39:06.578Z,51.18
2018-07-26T07:42:31.400Z,49.92
2018-07-26T07:45:56.178Z,49.98
2018-07-26T07:49:20.585Z,51.26
2018-07-26T07:52:45.411Z,50.78
2018-07-26T07:56:10.377Z,49.89
2018-07-26T07:59:35.325Z,49.14
2018-07-26T08:02:59.964Z,50.09
2018-07-26T08:06:24.756Z,48.98
2018-07-26T08:09:49.591Z,48.31
2018-07-26T08:13:14.368Z,48.33
2018-07-26T08:16:39.145Z,48.29
2018-07-26T08:20:03.634Z,48.98
2018-07-26T08:23:28.177Z,46.11
2018-07-26T08:26:53.415Z,45.91
2018-07-26T08:30:18.093Z,45.39
2018-07-26T08:33:42.822Z,46.01
2018-07-26T08:37:07.665Z,44.89
2018-07-26T08:40:32.404Z,44.49
2018-07-26T08:43:57.143Z,43.57
2018-07-26T08:47:21.765Z,44.00
2018-07-26T08:50:46.473Z,42.96
2018-07-26T08:55:39.973Z,44.29
2018-07-26T08:59:04.822Z,43.82
2018-07-26T09:02:29.927Z,42.51
2018-07-26T09:05:54.673Z,43.29
2018-07-26T09:09:19.473Z,42.74
2018-07-26T09:12:44.197Z,42.27
2018-07-26T09:16:08.980Z,41.55
2018-07-26T09:19:33.329Z,41.14
2018-07-26T09:22:58.173Z,39.86
2018-07-26T09:26:22.932Z,39.22
2018-07-26T09:29:52.782Z,40.36
2018-07-26T09:33:17.634Z,39.70
2018-07-26T09:36:41.937Z,38.26
2018-07-26T09:40:06.297Z,36.33
2018-07-26T09:43:31.078Z,38.24
2018-07-26T09:46:55.790Z,36.71
2018-07-26T09:50:20.450Z,36.77
2018-07-26T09:53:45.188Z,37.71
2018-07-26T09:57:09.536Z,35.52
2018-07-26T10:00:39.578Z,36.00
2018-07-26T10:04:07.238Z,35.93
2018-07-26T10:07:34.174Z,35.23
2018-07-26T10:10:59.580Z,35.95
2018-07-26T10:14:24.976Z,35.23
2018-07-26T10:17:50.128Z,33.46
2018-07-26T10:21:15.640Z,33.84
2018-07-26T10:24:41.446Z,35.24
2018-07-26T10:28:07.638Z,34.08
2018-07-26T10:31:33.190Z,32.40
2018-07-26T10:34:59.494Z,31.47
2018-07-26T10:38:24.364Z,32.18
2018-07-26T10:41:57.013Z,32.23
2018-07-26T10:45:23.133Z,32.77
2018-07-26T10:48:48.693Z,33.44
2018-07-26T10:52:13.135Z,32.65
2018-07-26T10:55:37.994Z,31.19
2018-07-26T10:59:02.695Z,32.01
2018-07-26T11:02:27.376Z,31.37
2018-07-26T11:05:52.186Z,29.79
2018-07-26T11:09:17.007Z,29.08
2018-07-26T11:12:41.752Z,29.19
2018-07-26T11:16:16.353Z,28.78
2018-07-26T11:19:41.090Z,27.98
2018-07-26T11:23:05.767Z,28.23
2018-07-26T11:26:30.427Z,30.46
2018-07-26T11:29:55.226Z,27.53
2018-07-26T11:33:19.876Z,27.83
2018-07-26T11:36:44.588Z,28.67
2018-07-26T11:40:09.325Z,26.56
2018-07-26T11:43:34.106Z,28.91
2018-07-26T11:46:58.795Z,29.35
2018-07-26T11:50:23.536Z,27.22
2018-07-26T11:53:48.222Z,26.79
2018-07-26T11:57:12.879Z,25.66
2018-07-26T12:00:37.689Z,27.20
2018-07-26T12:04:02.653Z,25.34
2018-07-26T12:07:27.356Z,26.61
2018-07-26T12:10:52.228Z,26.60
2018-07-26T12:14:17.062Z,25.21
2018-07-26T12:17:42.310Z,23.75
2018-07-26T12:21:08.975Z,23.89
2018-07-26T12:24:33.693Z,24.94
2018-07-26T12:27:58.506Z,24.49
2018-07-26T12:31:23.557Z,24.20
2018-07-26T12:34:47.967Z,23.66
2018-07-26T12:38:12.669Z,23.72
2018-07-26T12:41:37.370Z,24.75
2018-07-26T12:45:02.049Z,24.44
2018-07-26T12:48:26.463Z,23.83
2018-07-26T12:51:50.815Z,23.37
2018-07-26T12:55:15.218Z,23.37
2018-07-26T12:58:39.529Z,23.16
2018-07-26T13:02:04.292Z,21.62
2018-07-26T13:05:29.064Z,19.01
2018-07-26T13:08:54.104Z,19.19
2018-07-26T13:12:18.903Z,20.37
2018-07-26T13:15:43.608Z,21.64
2018-07-26T13:19:08.478Z,21.50
2018-07-26T13:22:33.121Z,22.09
2018-07-26T13:25:57.863Z,22.15
2018-07-26T13:29:23.151Z,21.77
2018-07-26T13:32:47.829Z,21.65
2018-07-26T13:36:13.773Z,20.52
2018-07-26T13:39:38.607Z,20.62
2018-07-26T13:43:03.375Z,21.09
2018-07-26T13:46:28.152Z,20.98
2018-07-26T13:49:53.710Z,22.87
2018-07-26T13:53:18.453Z,24.32
2018-07-26T13:56:43.131Z,22.09
2018-07-26T14:00:07.992Z,23.16
2018-07-26T14:03:32.749Z,22.43
2018-07-26T14:06:57.649Z,21.74
2018-07-26T14:10:22.398Z,22.09
2018-07-26T14:13:47.061Z,22.35
2018-07-26T14:17:11.823Z,22.57
2018-07-26T14:20:36.517Z,23.22
2018-07-26T14:24:02.986Z,22.78
2018-07-26T14:27:27.881Z,23.22
2018-07-26T14:30:52.266Z,23.39
2018-07-26T14:34:17.070Z,22.03
2018-07-26T14:37:41.788Z,21.48
2018-07-26T14:41:06.452Z,21.64
2018-07-26T14:44:31.108Z,21.61
2018-07-26T14:47:55.803Z,22.59
2018-07-26T14:51:20.256Z,23.06
2018-07-26T14:54:44.994Z,23.61
2018-07-26T14:58:09.728Z,22.64
2018-07-26T15:01:34.458Z,21.78
2018-07-26T15:04:59.148Z,22.37
2018-07-26T15:08:23.800Z,22.34
2018-07-26T15:11:48.601Z,22.17
2018-07-26T15:15:13.286Z,21.55
2018-07-26T15:18:37.954Z,21.70
2018-07-26T15:22:02.712Z,22.05
2018-07-26T15:25:27.877Z,20.66
2018-07-26T15:28:52.555Z,20.88
2018-07-26T15:32:17.310Z,20.71
2018-07-26T15:35:41.965Z,20.37
2018-07-26T15:39:09.810Z,20.04
2018-07-26T15:42:34.544Z,20.42
2018-07-26T15:45:59.282Z,20.17
2018-07-26T15:49:23.954Z,20.58
2018-07-26T15:52:48.630Z,19.86
2018-07-26T15:56:13.337Z,20.05
2018-07-26T15:59:38.073Z,20.49
2018-07-26T16:03:02.856Z,20.88
2018-07-26T16:06:27.637Z,19.88
2018-07-26T16:09:52.341Z,20.16
2018-07-26T16:13:17.066Z,19.42
2018-07-26T16:16:41.813Z,20.12
2018-07-26T16:20:08.501Z,21.05
2018-07-26T16:23:33.174Z,20.56
2018-07-26T16:26:57.832Z,20.74
2018-07-26T16:30:22.648Z,20.59
2018-07-26T16:33:47.300Z,20.58
2018-07-26T16:37:12.052Z,20.57
2018-07-26T16:40:36.745Z,19.99
2018-07-26T16:44:01.451Z,19.80
2018-07-26T16:47:26.159Z,19.58
2018-07-26T16:50:50.842Z,19.95
2018-07-26T16:54:15.513Z,20.19
2018-07-26T16:57:40.286Z,19.63
2018-07-26T17:01:05.116Z,20.33
2018-07-26T17:04:29.773Z,20.35
2018-07-26T17:07:54.766Z,20.12
2018-07-26T17:11:19.756Z,19.46
2018-07-26T17:14:44.400Z,20.53
2018-07-26T17:18:09.652Z,20.53
2018-07-26T17:21:34.633Z,21.34
2018-07-26T17:24:59.408Z,20.47
2018-07-26T17:28:24.282Z,20.30
2018-07-26T17:31:49.080Z,20.42
2018-07-26T17:35:13.810Z,20.35
2018-07-26T17:38:38.524Z,20.25
2018-07-26T17:42:03.382Z,19.79
2018-07-26T17:45:28.273Z,20.85
2018-07-26T17:48:53.056Z,20.85
2018-07-26T17:52:17.895Z,20.87
2018-07-26T17:55:42.661Z,20.75
2018-07-26T17:59:07.749Z,21.17
2018-07-26T18:02:32.613Z,22.41
2018-07-26T18:05:57.523Z,21.80
2018-07-26T18:09:22.492Z,23.16
2018-07-26T18:12:47.279Z,23.71
2018-07-26T18:16:12.077Z,24.42
2018-07-26T18:19:36.020Z,25.74
2018-07-26T18:22:59.596Z,26.01
2018-07-26T18:26:23.240Z,27.07
2018-07-26T18:29:47.986Z,25.81
2018-07-26T18:33:11.962Z,26.80
2018-07-26T18:36:35.808Z,27.05
2018-07-26T18:39:59.769Z,27.57
2018-07-26T18:43:24.069Z,27.02
2018-07-26T18:46:48.005Z,27.75
2018-07-26T18:50:12.134Z,27.82
2018-07-26T18:53:36.236Z,28.11
2018-07-26T18:57:00.158Z,28.77
2018-07-26T19:00:24.155Z,29.04
2018-07-26T19:03:48.106Z,29.94
2018-07-26T19:07:12.070Z,30.00
2018-07-26T19:10:36.108Z,30.81
2018-07-26T19:14:00.102Z,30.64
2018-07-26T19:17:24.133Z,31.04
2018-07-26T19:20:49.019Z,31.68
2018-07-26T19:24:13.082Z,32.03
2018-07-26T19:27:37.743Z,32.01
2018-07-26T19:31:01.728Z,31.65
2018-07-26T19:34:26.490Z,32.79
2018-07-26T19:37:51.260Z,32.70
2018-07-26T19:41:16.148Z,33.14
2018-07-26T19:44:40.865Z,33.42
2018-07-26T19:48:05.593Z,33.99
2018-07-26T19:51:30.571Z,33.26
2018-07-26T19:54:55.317Z,34.06
2018-07-26T19:58:19.657Z,34.42
2018-07-26T20:01:44.377Z,34.99
2018-07-26T20:05:09.879Z,34.36
2018-07-26T20:08:34.725Z,34.21
2018-07-26T20:11:59.421Z,34.78
2018-07-26T20:15:24.183Z,35.17
2018-07-26T20:18:48.551Z,35.07
2018-07-26T20:22:13.388Z,36.10
2018-07-26T20:25:45.383Z,36.30
2018-07-26T20:29:10.085Z,35.26
2018-07-26T20:32:34.903Z,35.51
2018-07-26T20:35:59.610Z,36.28
2018-07-26T20:39:24.283Z,36.27
2018-07-26T20:42:48.965Z,37.35
2018-07-26T20:46:13.420Z,36.36
2018-07-26T20:49:38.182Z,37.13
2018-07-26T20:53:02.866Z,37.85
2018-07-26T20:56:27.638Z,37.93
2018-07-26T20:59:52.339Z,37.75
2018-07-26T21:03:17.084Z,38.61
2018-07-26T21:06:41.878Z,38.26
2018-07-26T21:10:08.407Z,38.75
2018-07-26T21:13:32.729Z,38.32
2018-07-26T21:16:57.357Z,38.91
2018-07-26T21:20:22.056Z,38.87
2018-07-26T21:23:46.786Z,38.94
2018-07-26T21:27:11.158Z,38.26
2018-07-26T21:30:35.453Z,38.26
2018-07-26T21:34:00.090Z,38.66
2018-07-26T21:37:24.766Z,38.75
2018-07-26T21:40:49.415Z,39.33
2018-07-26T21:44:14.136Z,40.13
2018-07-26T21:47:38.833Z,40.75
2018-07-26T21:51:03.532Z,40.56
2018-07-26T21:54:28.186Z,40.13
2018-07-26T21:57:52.898Z,41.36
2018-07-26T22:01:17.308Z,41.46
2018-07-26T22:04:42.296Z,41.62
2018-07-26T22:08:07.003Z,42.33
2018-07-26T22:11:32.396Z,43.64
2018-07-26T22:14:57.071Z,43.68
2018-07-26T22:18:22.725Z,44.66
2018-07-26T22:21:47.382Z,44.08
2018-07-26T22:25:12.193Z,44.15
2018-07-26T22:28:36.899Z,44.44
2018-07-26T22:32:01.279Z,44.71
2018-07-26T22:35:25.184Z,44.07
2018-07-26T22:38:49.120Z,44.42
2018-07-26T22:42:13.114Z,44.57
2018-07-26T22:45:37.471Z,44.26
2018-07-26T22:49:02.120Z,44.91
2018-07-26T22:52:26.009Z,46.26
2018-07-26T22:55:49.967Z,45.95
2018-07-26T22:59:13.898Z,46.96
2018-07-26T23:02:38.579Z,45.79
2018-07-26T23:06:03.248Z,46.45
2018-07-26T23:09:27.162Z,47.06
2018-07-26T23:12:51.537Z,46.87
2018-07-26T23:16:15.403Z,47.03
2018-07-26T23:19:39.273Z,47.27
2018-07-26T23:23:03.192Z,47.94
2018-07-26T23:26:27.128Z,48.64
2018-07-26T23:29:51.001Z,48.87
2018-07-26T23:33:14.537Z,49.32
2018-07-26T23:36:38.473Z,48.55
2018-07-26T23:40:02.375Z,48.13
2018-07-26T23:43:26.216Z,49.42
2018-07-26T23:46:50.097Z,49.63
2018-07-26T23:50:13.622Z,50.15
2018-07-26T23:53:37.643Z,49.42
2018-07-26T23:57:01.540Z,49.56
